sensor_id;sensor_type;location;lat;lon;timestamp;pressure;altitude;pressure_sealevel;temperature;humidity
48530;BME280;34927;37.302;-121.982;2023-02-21T00:00:41;101076.0;;;24.09;26.42
48530;BME280;34927;37.302;-121.982;2023-02-21T00:01:47;101076.0;;;24.22;26.28
48530;BME280;34927;37.302;-121.982;2023-02-21T00:02:52;101074.0;;;24.29;26.19
48530;BME280;34927;37.302;-121.982;2023-02-21T00:03:57;101075.0;;;24.31;26.17
48530;BME280;34927;37.302;-121.982;2023-02-21T00:05:02;101073.0;;;24.37;26.05
48530;BME280;34927;37.302;-121.982;2023-02-21T00:06:07;101073.0;;;24.36;26.07
48530;BME280;34927;37.302;-121.982;2023-02-21T00:07:12;101070.0;;;24.40;26.02
48530;BME280;34927;37.302;-121.982;2023-02-21T00:08:17;101071.0;;;24.16;26.31
48530;BME280;34927;37.302;-121.982;2023-02-21T00:09:21;101068.0;;;24.36;26.10
48530;BME280;34927;37.302;-121.982;2023-02-21T00:10:27;101068.0;;;24.60;25.99
48530;BME280;34927;37.302;-121.982;2023-02-21T00:11:32;101067.0;;;24.52;26.13
48530;BME280;34927;37.302;-121.982;2023-02-21T00:12:37;101065.0;;;24.48;26.20
48530;BME280;34927;37.302;-121.982;2023-02-21T00:13:41;101064.0;;;24.50;26.23
48530;BME280;34927;37.302;-121.982;2023-02-21T00:14:46;101060.0;;;24.50;26.28
48530;BME280;34927;37.302;-121.982;2023-02-21T00:15:52;101057.0;;;24.64;26.13
48530;BME280;34927;37.302;-121.982;2023-02-21T00:16:57;101056.0;;;24.62;26.39
48530;BME280;34927;37.302;-121.982;2023-02-21T00:18:01;101058.0;;;24.47;26.59
48530;BME280;34927;37.302;-121.982;2023-02-21T00:19:07;101058.0;;;24.54;26.56
48530;BME280;34927;37.302;-121.982;2023-02-21T00:20:11;101057.0;;;24.57;26.57
48530;BME280;34927;37.302;-121.982;2023-02-21T00:21:17;101054.0;;;24.50;26.57
48530;BME280;34927;37.302;-121.982;2023-02-21T00:22:22;101053.0;;;24.56;26.48
48530;BME280;34927;37.302;-121.982;2023-02-21T00:23:27;101055.0;;;24.54;26.42
48530;BME280;34927;37.302;-121.982;2023-02-21T00:49:37;101051.0;;;23.95;27.21
48530;BME280;34927;37.302;-121.982;2023-02-21T00:50:42;101055.0;;;24.08;27.00
48530;BME280;34927;37.302;-121.982;2023-02-21T00:51:47;101054.0;;;24.11;26.89
48530;BME280;34927;37.302;-121.982;2023-02-21T00:52:52;101053.0;;;24.24;26.57
48530;BME280;34927;37.302;-121.982;2023-02-21T00:53:56;101054.0;;;24.19;26.54
48530;BME280;34927;37.302;-121.982;2023-02-21T00:55:02;101057.0;;;24.20;26.51
48530;BME280;34927;37.302;-121.982;2023-02-21T00:56:06;101060.0;;;24.13;26.55
48530;BME280;34927;37.302;-121.982;2023-02-21T00:57:12;101059.0;;;24.17;26.50
48530;BME280;34927;37.302;-121.982;2023-02-21T00:58:19;101059.0;;;24.18;26.56
48530;BME280;34927;37.302;-121.982;2023-02-21T00:59:22;101055.0;;;24.13;26.62
48530;BME280;34927;37.302;-121.982;2023-02-21T01:00:26;101056.0;;;24.24;26.46
48530;BME280;34927;37.302;-121.982;2023-02-21T01:01:32;101058.0;;;24.27;26.36
48530;BME280;34927;37.302;-121.982;2023-02-21T01:02:36;101057.0;;;24.29;26.29
48530;BME280;34927;37.302;-121.982;2023-02-21T01:03:42;101059.0;;;24.28;26.20
48530;BME280;34927;37.302;-121.982;2023-02-21T01:04:46;101060.0;;;24.24;26.10
48530;BME280;34927;37.302;-121.982;2023-02-21T01:05:53;101058.0;;;24.22;26.05
48530;BME280;34927;37.302;-121.982;2023-02-21T01:06:57;101057.0;;;24.21;26.02
48530;BME280;34927;37.302;-121.982;2023-02-21T01:08:01;101056.0;;;24.19;25.99
48530;BME280;34927;37.302;-121.982;2023-02-21T01:09:06;101054.0;;;24.12;25.97
48530;BME280;34927;37.302;-121.982;2023-02-21T01:10:12;101054.0;;;24.11;25.94
48530;BME280;34927;37.302;-121.982;2023-02-21T01:11:18;101054.0;;;24.06;25.93
48530;BME280;34927;37.302;-121.982;2023-02-21T01:12:21;101053.0;;;24.11;25.85
48530;BME280;34927;37.302;-121.982;2023-02-21T01:13:27;101055.0;;;24.15;25.74
48530;BME280;34927;37.302;-121.982;2023-02-21T01:14:31;101059.0;;;24.10;25.77
48530;BME280;34927;37.302;-121.982;2023-02-21T01:15:37;101058.0;;;24.10;25.76
48530;BME280;34927;37.302;-121.982;2023-02-21T01:16:41;101059.0;;;24.08;25.72
48530;BME280;34927;37.302;-121.982;2023-02-21T01:17:46;101064.0;;;24.07;25.72
48530;BME280;34927;37.302;-121.982;2023-02-21T01:18:52;101064.0;;;24.08;25.60
48530;BME280;34927;37.302;-121.982;2023-02-21T01:19:56;101068.0;;;24.08;25.59
48530;BME280;34927;37.302;-121.982;2023-02-21T01:21:02;101067.0;;;24.09;25.59
48530;BME280;34927;37.302;-121.982;2023-02-21T01:22:07;101064.0;;;24.10;25.57
48530;BME280;34927;37.302;-121.982;2023-02-21T01:23:12;101063.0;;;24.12;25.60
48530;BME280;34927;37.302;-121.982;2023-02-21T01:24:17;101062.0;;;24.10;25.56
48530;BME280;34927;37.302;-121.982;2023-02-21T01:25:21;101061.0;;;23.90;25.83
48530;BME280;34927;37.302;-121.982;2023-02-21T01:26:26;101062.0;;;23.93;25.76
48530;BME280;34927;37.302;-121.982;2023-02-21T01:27:32;101064.0;;;23.82;25.59
48530;BME280;34927;37.302;-121.982;2023-02-21T01:28:36;101065.0;;;23.76;25.43
48530;BME280;34927;37.302;-121.982;2023-02-21T01:29:42;101068.0;;;23.72;25.82
48530;BME280;34927;37.302;-121.982;2023-02-21T01:30:47;101067.0;;;23.77;25.41
48530;BME280;34927;37.302;-121.982;2023-02-21T01:31:51;101069.0;;;23.73;25.48
48530;BME280;34927;37.302;-121.982;2023-02-21T01:32:57;101069.0;;;23.84;25.18
48530;BME280;34927;37.302;-121.982;2023-02-21T01:34:01;101070.0;;;23.82;25.42
48530;BME280;34927;37.302;-121.982;2023-02-21T01:35:07;101069.0;;;23.79;25.37
48530;BME280;34927;37.302;-121.982;2023-02-21T01:36:12;101071.0;;;23.93;25.31
48530;BME280;34927;37.302;-121.982;2023-02-21T01:37:17;101074.0;;;24.04;25.19
48530;BME280;34927;37.302;-121.982;2023-02-21T01:38:21;101076.0;;;24.06;25.08
48530;BME280;34927;37.302;-121.982;2023-02-21T01:39:26;101079.0;;;24.05;24.86
48530;BME280;34927;37.302;-121.982;2023-02-21T01:40:32;101078.0;;;24.11;24.85
48530;BME280;34927;37.302;-121.982;2023-02-21T01:41:37;101078.0;;;24.04;24.92
48530;BME280;34927;37.302;-121.982;2023-02-21T01:42:42;101079.0;;;24.13;24.78
48530;BME280;34927;37.302;-121.982;2023-02-21T01:46:18;101072.0;;;23.87;24.69
48530;BME280;34927;37.302;-121.982;2023-02-21T01:47:22;101070.0;;;23.86;24.66
48530;BME280;34927;37.302;-121.982;2023-02-21T01:48:28;101071.0;;;23.90;24.46
48530;BME280;34927;37.302;-121.982;2023-02-21T01:49:33;101073.0;;;23.89;24.54
48530;BME280;34927;37.302;-121.982;2023-02-21T01:50:41;101072.0;;;23.73;24.64
48530;BME280;34927;37.302;-121.982;2023-02-21T01:51:48;101076.0;;;23.71;24.51
48530;BME280;34927;37.302;-121.982;2023-02-21T01:52:52;101078.0;;;23.72;24.35
48530;BME280;34927;37.302;-121.982;2023-02-21T01:53:57;101080.0;;;23.69;24.33
48530;BME280;34927;37.302;-121.982;2023-02-21T01:55:02;101083.0;;;23.69;24.35
48530;BME280;34927;37.302;-121.982;2023-02-21T01:56:08;101084.0;;;23.75;24.16
48530;BME280;34927;37.302;-121.982;2023-02-21T01:57:12;101085.0;;;23.73;24.29
48530;BME280;34927;37.302;-121.982;2023-02-21T01:58:17;101083.0;;;23.65;24.46
48530;BME280;34927;37.302;-121.982;2023-02-21T01:59:27;101081.0;;;23.61;24.45
48530;BME280;34927;37.302;-121.982;2023-02-21T02:00:32;101079.0;;;23.63;24.38
48530;BME280;34927;37.302;-121.982;2023-02-21T02:01:39;101081.0;;;23.55;24.40
48530;BME280;34927;37.302;-121.982;2023-02-21T02:02:52;101080.0;;;23.54;24.57
48530;BME280;34927;37.302;-121.982;2023-02-21T02:03:57;101077.0;;;23.58;24.76
48530;BME280;34927;37.302;-121.982;2023-02-21T02:05:02;101074.0;;;23.52;24.93
48530;BME280;34927;37.302;-121.982;2023-02-21T02:06:09;101074.0;;;23.68;24.90
48530;BME280;34927;37.302;-121.982;2023-02-21T02:07:11;101074.0;;;23.58;25.20
48530;BME280;34927;37.302;-121.982;2023-02-21T02:08:21;101074.0;;;23.56;25.30
48530;BME280;34927;37.302;-121.982;2023-02-21T02:09:26;101073.0;;;23.55;25.35
48530;BME280;34927;37.302;-121.982;2023-02-21T02:10:31;101073.0;;;23.45;25.57
48530;BME280;34927;37.302;-121.982;2023-02-21T02:11:50;101078.0;;;23.61;25.47
48530;BME280;34927;37.302;-121.982;2023-02-21T02:14:23;101084.0;;;23.63;26.06
48530;BME280;34927;37.302;-121.982;2023-02-21T02:15:40;101084.0;;;23.63;26.20
48530;BME280;34927;37.302;-121.982;2023-02-21T02:16:54;101086.0;;;23.67;26.30
48530;BME280;34927;37.302;-121.982;2023-02-21T02:18:24;101082.0;;;23.72;26.54
48530;BME280;34927;37.302;-121.982;2023-02-21T02:19:50;101080.0;;;23.61;26.84
48530;BME280;34927;37.302;-121.982;2023-02-21T02:22:39;101071.0;;;23.76;26.99
48530;BME280;34927;37.302;-121.982;2023-02-21T02:24:09;101075.0;;;23.86;27.15
48530;BME280;34927;37.302;-121.982;2023-02-21T02:25:36;101072.0;;;23.73;27.80
48530;BME280;34927;37.302;-121.982;2023-02-21T02:28:15;101074.0;;;23.90;27.35
48530;BME280;34927;37.302;-121.982;2023-02-21T02:29:38;101073.0;;;23.88;27.37
48530;BME280;34927;37.302;-121.982;2023-02-21T02:32:28;101068.0;;;23.77;27.50
48530;BME280;34927;37.302;-121.982;2023-02-21T02:34:55;101068.0;;;23.68;27.62
48530;BME280;34927;37.302;-121.982;2023-02-21T02:36:05;101070.0;;;23.74;27.62
48530;BME280;34927;37.302;-121.982;2023-02-21T02:37:17;101074.0;;;23.72;27.61
48530;BME280;34927;37.302;-121.982;2023-02-21T02:38:31;101074.0;;;23.68;27.65
48530;BME280;34927;37.302;-121.982;2023-02-21T02:39:40;101074.0;;;23.57;27.92
48530;BME280;34927;37.302;-121.982;2023-02-21T02:40:58;101072.0;;;23.46;28.00
48530;BME280;34927;37.302;-121.982;2023-02-21T02:42:11;101072.0;;;23.61;27.86
48530;BME280;34927;37.302;-121.982;2023-02-21T02:43:21;101072.0;;;23.64;27.76
48530;BME280;34927;37.302;-121.982;2023-02-21T02:44:30;101073.0;;;23.56;27.98
48530;BME280;34927;37.302;-121.982;2023-02-21T02:45:42;101073.0;;;23.46;28.14
48530;BME280;34927;37.302;-121.982;2023-02-21T02:46:48;101076.0;;;23.52;28.04
48530;BME280;34927;37.302;-121.982;2023-02-21T02:47:54;101074.0;;;23.54;27.93
48530;BME280;34927;37.302;-121.982;2023-02-21T02:49:06;101069.0;;;23.66;27.81
48530;BME280;34927;37.302;-121.982;2023-02-21T02:50:13;101070.0;;;23.63;27.83
48530;BME280;34927;37.302;-121.982;2023-02-21T02:51:16;101073.0;;;23.56;27.89
48530;BME280;34927;37.302;-121.982;2023-02-21T02:52:21;101078.0;;;23.54;28.01
48530;BME280;34927;37.302;-121.982;2023-02-21T02:53:29;101079.0;;;23.58;27.89
48530;BME280;34927;37.302;-121.982;2023-02-21T02:54:32;101083.0;;;23.52;28.00
48530;BME280;34927;37.302;-121.982;2023-02-21T02:55:40;101086.0;;;23.57;27.86
48530;BME280;34927;37.302;-121.982;2023-02-21T02:56:48;101088.0;;;23.55;27.93
48530;BME280;34927;37.302;-121.982;2023-02-21T02:57:52;101090.0;;;23.59;27.83
48530;BME280;34927;37.302;-121.982;2023-02-21T02:59:00;101089.0;;;23.51;27.98
48530;BME280;34927;37.302;-121.982;2023-02-21T03:00:08;101086.0;;;23.46;28.07
48530;BME280;34927;37.302;-121.982;2023-02-21T03:01:26;101085.0;;;23.62;27.79
48530;BME280;34927;37.302;-121.982;2023-02-21T03:02:45;101086.0;;;23.50;27.95
48530;BME280;34927;37.302;-121.982;2023-02-21T03:04:02;101086.0;;;23.48;27.99
48530;BME280;34927;37.302;-121.982;2023-02-21T03:05:24;101086.0;;;23.43;28.05
48530;BME280;34927;37.302;-121.982;2023-02-21T03:06:37;101083.0;;;23.50;28.12
48530;BME280;34927;37.302;-121.982;2023-02-21T03:07:57;101083.0;;;23.32;28.24
48530;BME280;34927;37.302;-121.982;2023-02-21T03:09:10;101079.0;;;23.45;28.03
48530;BME280;34927;37.302;-121.982;2023-02-21T03:10:22;101079.0;;;23.47;28.03
48530;BME280;34927;37.302;-121.982;2023-02-21T03:11:31;101079.0;;;23.39;28.18
48530;BME280;34927;37.302;-121.982;2023-02-21T03:12:40;101077.0;;;23.43;28.10
48530;BME280;34927;37.302;-121.982;2023-02-21T03:13:50;101079.0;;;23.28;28.37
48530;BME280;34927;37.302;-121.982;2023-02-21T03:15:01;101077.0;;;23.25;28.41
48530;BME280;34927;37.302;-121.982;2023-02-21T03:16:13;101075.0;;;23.28;28.43
48530;BME280;34927;37.302;-121.982;2023-02-21T03:17:23;101075.0;;;23.28;28.41
48530;BME280;34927;37.302;-121.982;2023-02-21T03:18:30;101075.0;;;23.16;28.57
48530;BME280;34927;37.302;-121.982;2023-02-21T03:19:39;101074.0;;;23.21;28.59
48530;BME280;34927;37.302;-121.982;2023-02-21T03:20:51;101074.0;;;23.26;28.49
48530;BME280;34927;37.302;-121.982;2023-02-21T03:21:59;101073.0;;;23.20;28.63
48530;BME280;34927;37.302;-121.982;2023-02-21T03:23:08;101070.0;;;23.24;28.55
48530;BME280;34927;37.302;-121.982;2023-02-21T03:24:18;101069.0;;;23.21;28.60
48530;BME280;34927;37.302;-121.982;2023-02-21T03:25:22;101065.0;;;23.28;28.41
48530;BME280;34927;37.302;-121.982;2023-02-21T03:26:29;101065.0;;;23.21;28.70
48530;BME280;34927;37.302;-121.982;2023-02-21T03:27:38;101058.0;;;23.15;28.75
48530;BME280;34927;37.302;-121.982;2023-02-21T03:28:42;101059.0;;;23.15;28.81
48530;BME280;34927;37.302;-121.982;2023-02-21T03:29:48;101056.0;;;23.26;28.65
48530;BME280;34927;37.302;-121.982;2023-02-21T03:30:54;101058.0;;;23.14;28.73
48530;BME280;34927;37.302;-121.982;2023-02-21T03:32:02;101059.0;;;23.16;28.72
48530;BME280;34927;37.302;-121.982;2023-02-21T03:33:06;101060.0;;;23.17;28.77
48530;BME280;34927;37.302;-121.982;2023-02-21T03:34:12;101063.0;;;23.22;28.75
48530;BME280;34927;37.302;-121.982;2023-02-21T03:35:17;101062.0;;;23.17;28.90
48530;BME280;34927;37.302;-121.982;2023-02-21T03:36:22;101062.0;;;23.23;28.69
48530;BME280;34927;37.302;-121.982;2023-02-21T03:37:32;101061.0;;;23.17;28.85
48530;BME280;34927;37.302;-121.982;2023-02-21T03:38:37;101061.0;;;23.19;28.75
48530;BME280;34927;37.302;-121.982;2023-02-21T03:39:41;101059.0;;;23.12;28.99
48530;BME280;34927;37.302;-121.982;2023-02-21T03:40:47;101063.0;;;23.21;28.78
48530;BME280;34927;37.302;-121.982;2023-02-21T03:41:51;101061.0;;;23.17;28.86
48530;BME280;34927;37.302;-121.982;2023-02-21T03:42:58;101062.0;;;23.12;28.83
48530;BME280;34927;37.302;-121.982;2023-02-21T03:44:02;101062.0;;;23.16;28.81
48530;BME280;34927;37.302;-121.982;2023-02-21T03:45:07;101061.0;;;23.11;28.97
48530;BME280;34927;37.302;-121.982;2023-02-21T03:46:13;101063.0;;;23.13;28.93
48530;BME280;34927;37.302;-121.982;2023-02-21T03:47:16;101064.0;;;23.10;28.95
48530;BME280;34927;37.302;-121.982;2023-02-21T03:48:22;101063.0;;;23.08;29.04
48530;BME280;34927;37.302;-121.982;2023-02-21T03:49:26;101061.0;;;23.10;29.02
48530;BME280;34927;37.302;-121.982;2023-02-21T03:50:32;101061.0;;;23.06;29.06
48530;BME280;34927;37.302;-121.982;2023-02-21T03:51:36;101059.0;;;23.02;29.19
48530;BME280;34927;37.302;-121.982;2023-02-21T03:52:41;101059.0;;;23.04;29.08
48530;BME280;34927;37.302;-121.982;2023-02-21T03:53:46;101059.0;;;22.91;29.29
48530;BME280;34927;37.302;-121.982;2023-02-21T03:54:52;101061.0;;;22.97;29.10
48530;BME280;34927;37.302;-121.982;2023-02-21T03:55:57;101059.0;;;22.99;29.09
48530;BME280;34927;37.302;-121.982;2023-02-21T03:57:01;101058.0;;;23.00;29.14
48530;BME280;34927;37.302;-121.982;2023-02-21T03:58:06;101063.0;;;22.90;29.18
48530;BME280;34927;37.302;-121.982;2023-02-21T03:59:11;101066.0;;;22.96;29.21
48530;BME280;34927;37.302;-121.982;2023-02-21T04:00:17;101066.0;;;23.04;29.04
48530;BME280;34927;37.302;-121.982;2023-02-21T04:01:21;101069.0;;;22.94;29.13
48530;BME280;34927;37.302;-121.982;2023-02-21T04:02:27;101068.0;;;22.94;29.13
48530;BME280;34927;37.302;-121.982;2023-02-21T04:03:32;101068.0;;;22.87;29.22
48530;BME280;34927;37.302;-121.982;2023-02-21T04:04:36;101066.0;;;22.82;29.31
48530;BME280;34927;37.302;-121.982;2023-02-21T04:05:42;101064.0;;;22.83;29.34
48530;BME280;34927;37.302;-121.982;2023-02-21T04:06:47;101065.0;;;22.93;29.33
48530;BME280;34927;37.302;-121.982;2023-02-21T04:07:51;101069.0;;;22.90;29.44
48530;BME280;34927;37.302;-121.982;2023-02-21T04:08:57;101070.0;;;22.76;29.53
48530;BME280;34927;37.302;-121.982;2023-02-21T04:10:01;101069.0;;;22.75;29.67
48530;BME280;34927;37.302;-121.982;2023-02-21T04:11:07;101069.0;;;22.71;29.95
48530;BME280;34927;37.302;-121.982;2023-02-21T04:12:11;101070.0;;;22.68;30.13
48530;BME280;34927;37.302;-121.982;2023-02-21T04:13:17;101068.0;;;22.64;30.13
48530;BME280;34927;37.302;-121.982;2023-02-21T04:14:22;101069.0;;;22.56;30.31
48530;BME280;34927;37.302;-121.982;2023-02-21T04:15:27;101069.0;;;22.55;30.34
48530;BME280;34927;37.302;-121.982;2023-02-21T04:16:31;101071.0;;;22.58;30.44
48530;BME280;34927;37.302;-121.982;2023-02-21T04:17:37;101071.0;;;22.53;30.63
48530;BME280;34927;37.302;-121.982;2023-02-21T04:18:41;101074.0;;;22.49;30.79
48530;BME280;34927;37.302;-121.982;2023-02-21T04:19:46;101072.0;;;22.58;30.56
48530;BME280;34927;37.302;-121.982;2023-02-21T04:20:52;101072.0;;;22.59;30.66
48530;BME280;34927;37.302;-121.982;2023-02-21T04:22:02;101070.0;;;22.49;30.73
48530;BME280;34927;37.302;-121.982;2023-02-21T04:23:06;101070.0;;;22.49;30.71
48530;BME280;34927;37.302;-121.982;2023-02-21T04:24:11;101071.0;;;22.47;30.85
48530;BME280;34927;37.302;-121.982;2023-02-21T04:25:16;101074.0;;;22.58;30.59
48530;BME280;34927;37.302;-121.982;2023-02-21T04:26:22;101077.0;;;22.66;30.39
48530;BME280;34927;37.302;-121.982;2023-02-21T04:27:26;101077.0;;;22.59;30.61
48530;BME280;34927;37.302;-121.982;2023-02-21T04:28:31;101074.0;;;22.46;30.77
48530;BME280;34927;37.302;-121.982;2023-02-21T04:29:37;101069.0;;;22.51;30.81
48530;BME280;34927;37.302;-121.982;2023-02-21T04:30:41;101066.0;;;22.57;30.51
48530;BME280;34927;37.302;-121.982;2023-02-21T04:31:47;101065.0;;;22.53;30.52
48530;BME280;34927;37.302;-121.982;2023-02-21T04:32:51;101065.0;;;22.55;30.60
48530;BME280;34927;37.302;-121.982;2023-02-21T04:33:57;101066.0;;;22.67;30.46
48530;BME280;34927;37.302;-121.982;2023-02-21T04:35:02;101070.0;;;22.55;30.47
48530;BME280;34927;37.302;-121.982;2023-02-21T04:36:07;101070.0;;;22.48;30.66
48530;BME280;34927;37.302;-121.982;2023-02-21T04:37:12;101070.0;;;22.58;30.39
48530;BME280;34927;37.302;-121.982;2023-02-21T04:38:16;101068.0;;;22.73;30.06
48530;BME280;34927;37.302;-121.982;2023-02-21T04:39:21;101070.0;;;22.89;29.77
48530;BME280;34927;37.302;-121.982;2023-02-21T04:40:27;101067.0;;;23.17;29.37
48530;BME280;34927;37.302;-121.982;2023-02-21T04:41:31;101068.0;;;23.54;28.80
48530;BME280;34927;37.302;-121.982;2023-02-21T04:42:38;101069.0;;;23.88;28.27
48530;BME280;34927;37.302;-121.982;2023-02-21T04:43:42;101072.0;;;24.00;27.97
48530;BME280;34927;37.302;-121.982;2023-02-21T04:44:47;101067.0;;;23.95;28.00
48530;BME280;34927;37.302;-121.982;2023-02-21T04:45:52;101064.0;;;23.85;28.23
48530;BME280;34927;37.302;-121.982;2023-02-21T04:46:56;101062.0;;;23.59;28.50
48530;BME280;34927;37.302;-121.982;2023-02-21T04:48:02;101061.0;;;23.50;28.60
48530;BME280;34927;37.302;-121.982;2023-02-21T04:49:07;101062.0;;;23.23;28.90
48530;BME280;34927;37.302;-121.982;2023-02-21T04:50:11;101060.0;;;23.36;28.71
48530;BME280;34927;37.302;-121.982;2023-02-21T04:51:19;101063.0;;;23.31;28.88
48530;BME280;34927;37.302;-121.982;2023-02-21T04:52:26;101067.0;;;23.21;28.89
48530;BME280;34927;37.302;-121.982;2023-02-21T04:53:32;101066.0;;;23.12;29.08
48530;BME280;34927;37.302;-121.982;2023-02-21T04:54:37;101063.0;;;23.18;28.95
48530;BME280;34927;37.302;-121.982;2023-02-21T04:55:41;101060.0;;;22.99;29.54
48530;BME280;34927;37.302;-121.982;2023-02-21T04:56:47;101058.0;;;23.00;29.49
48530;BME280;34927;37.302;-121.982;2023-02-21T04:57:51;101059.0;;;23.02;29.52
48530;BME280;34927;37.302;-121.982;2023-02-21T04:58:57;101059.0;;;22.94;29.67
48530;BME280;34927;37.302;-121.982;2023-02-21T05:00:03;101049.0;;;23.07;29.61
48530;BME280;34927;37.302;-121.982;2023-02-21T05:01:09;101043.0;;;22.92;29.97
48530;BME280;34927;37.302;-121.982;2023-02-21T05:02:12;101039.0;;;22.86;30.16
48530;BME280;34927;37.302;-121.982;2023-02-21T05:03:16;101040.0;;;22.85;30.14
48530;BME280;34927;37.302;-121.982;2023-02-21T05:04:22;101035.0;;;22.97;29.94
48530;BME280;34927;37.302;-121.982;2023-02-21T05:05:27;101033.0;;;23.02;29.93
48530;BME280;34927;37.302;-121.982;2023-02-21T05:06:32;101035.0;;;22.91;30.08
48530;BME280;34927;37.302;-121.982;2023-02-21T05:07:37;101035.0;;;22.87;30.19
48530;BME280;34927;37.302;-121.982;2023-02-21T05:08:41;101036.0;;;23.20;29.99
48530;BME280;34927;37.302;-121.982;2023-02-21T05:09:46;101036.0;;;23.47;29.59
48530;BME280;34927;37.302;-121.982;2023-02-21T05:10:51;101037.0;;;23.76;29.18
48530;BME280;34927;37.302;-121.982;2023-02-21T05:11:56;101039.0;;;24.06;28.66
48530;BME280;34927;37.302;-121.982;2023-02-21T05:13:02;101042.0;;;24.37;28.26
48530;BME280;34927;37.302;-121.982;2023-02-21T05:14:07;101043.0;;;24.45;28.01
48530;BME280;34927;37.302;-121.982;2023-02-21T05:15:13;101046.0;;;24.30;28.17
48530;BME280;34927;37.302;-121.982;2023-02-21T05:16:18;101049.0;;;24.09;28.77
48530;BME280;34927;37.302;-121.982;2023-02-21T05:17:22;101050.0;;;23.91;28.95
48530;BME280;34927;37.302;-121.982;2023-02-21T05:18:27;101048.0;;;23.80;28.97
48530;BME280;34927;37.302;-121.982;2023-02-21T05:19:31;101047.0;;;23.64;29.25
48530;BME280;34927;37.302;-121.982;2023-02-21T05:20:37;101049.0;;;23.64;29.12
48530;BME280;34927;37.302;-121.982;2023-02-21T05:21:41;101048.0;;;23.68;28.98
48530;BME280;34927;37.302;-121.982;2023-02-21T05:22:47;101046.0;;;23.63;29.03
48530;BME280;34927;37.302;-121.982;2023-02-21T05:23:51;101044.0;;;23.57;29.20
48530;BME280;34927;37.302;-121.982;2023-02-21T05:24:56;101041.0;;;23.50;29.14
48530;BME280;34927;37.302;-121.982;2023-02-21T05:26:04;101043.0;;;23.37;29.29
48530;BME280;34927;37.302;-121.982;2023-02-21T05:27:06;101041.0;;;23.25;29.55
48530;BME280;34927;37.302;-121.982;2023-02-21T05:28:11;101040.0;;;23.19;29.67
48530;BME280;34927;37.302;-121.982;2023-02-21T05:29:17;101038.0;;;23.21;29.56
48530;BME280;34927;37.302;-121.982;2023-02-21T05:30:23;101036.0;;;23.17;29.71
48530;BME280;34927;37.302;-121.982;2023-02-21T05:31:27;101035.0;;;22.85;30.22
48530;BME280;34927;37.302;-121.982;2023-02-21T05:32:31;101031.0;;;22.98;29.92
48530;BME280;34927;37.302;-121.982;2023-02-21T05:33:37;101030.0;;;23.03;29.83
48530;BME280;34927;37.302;-121.982;2023-02-21T05:34:42;101027.0;;;23.13;29.59
48530;BME280;34927;37.302;-121.982;2023-02-21T05:35:46;101024.0;;;23.40;29.35
48530;BME280;34927;37.302;-121.982;2023-02-21T05:36:52;101027.0;;;23.68;28.90
48530;BME280;34927;37.302;-121.982;2023-02-21T05:37:57;101024.0;;;23.98;28.45
48530;BME280;34927;37.302;-121.982;2023-02-21T05:39:04;101025.0;;;24.33;27.96
48530;BME280;34927;37.302;-121.982;2023-02-21T05:40:09;101024.0;;;24.54;27.51
48530;BME280;34927;37.302;-121.982;2023-02-21T05:41:12;101023.0;;;24.54;27.41
48530;BME280;34927;37.302;-121.982;2023-02-21T05:42:16;101023.0;;;24.32;27.70
48530;BME280;34927;37.302;-121.982;2023-02-21T05:43:22;101027.0;;;24.20;27.95
48530;BME280;34927;37.302;-121.982;2023-02-21T05:44:26;101032.0;;;23.97;28.21
48530;BME280;34927;37.302;-121.982;2023-02-21T05:45:32;101032.0;;;23.63;28.60
48530;BME280;34927;37.302;-121.982;2023-02-21T05:46:37;101036.0;;;23.60;28.65
48530;BME280;34927;37.302;-121.982;2023-02-21T05:47:41;101038.0;;;23.65;28.58
48530;BME280;34927;37.302;-121.982;2023-02-21T05:48:47;101042.0;;;23.54;28.71
48530;BME280;34927;37.302;-121.982;2023-02-21T05:49:52;101042.0;;;23.44;28.93
48530;BME280;34927;37.302;-121.982;2023-02-21T05:50:56;101040.0;;;23.36;29.03
48530;BME280;34927;37.302;-121.982;2023-02-21T05:52:02;101033.0;;;23.30;29.23
48530;BME280;34927;37.302;-121.982;2023-02-21T05:53:07;101032.0;;;23.22;29.29
48530;BME280;34927;37.302;-121.982;2023-02-21T05:54:14;101032.0;;;23.30;29.18
48530;BME280;34927;37.302;-121.982;2023-02-21T05:55:22;101032.0;;;23.20;29.37
48530;BME280;34927;37.302;-121.982;2023-02-21T05:56:27;101029.0;;;23.09;29.54
48530;BME280;34927;37.302;-121.982;2023-02-21T05:57:37;101029.0;;;23.02;29.67
48530;BME280;34927;37.302;-121.982;2023-02-21T05:58:42;101029.0;;;23.05;29.63
48530;BME280;34927;37.302;-121.982;2023-02-21T05:59:46;101025.0;;;22.98;29.99
48530;BME280;34927;37.302;-121.982;2023-02-21T06:00:51;101026.0;;;22.91;30.15
48530;BME280;34927;37.302;-121.982;2023-02-21T06:01:56;101022.0;;;22.95;29.80
48530;BME280;34927;37.302;-121.982;2023-02-21T06:03:01;101020.0;;;22.88;30.23
48530;BME280;34927;37.302;-121.982;2023-02-21T06:04:07;101023.0;;;22.91;30.10
48530;BME280;34927;37.302;-121.982;2023-02-21T06:05:12;101024.0;;;22.97;30.11
48530;BME280;34927;37.302;-121.982;2023-02-21T06:06:16;101024.0;;;23.10;30.24
48530;BME280;34927;37.302;-121.982;2023-02-21T06:07:22;101027.0;;;23.35;29.97
48530;BME280;34927;37.302;-121.982;2023-02-21T06:08:26;101027.0;;;23.69;29.66
48530;BME280;34927;37.302;-121.982;2023-02-21T06:09:32;101020.0;;;23.99;29.03
48530;BME280;34927;37.302;-121.982;2023-02-21T06:10:36;101018.0;;;24.25;28.61
48530;BME280;34927;37.302;-121.982;2023-02-21T06:11:42;101018.0;;;24.25;28.59
48530;BME280;34927;37.302;-121.982;2023-02-21T06:12:46;101013.0;;;24.06;29.02
48530;BME280;34927;37.302;-121.982;2023-02-21T06:13:53;101012.0;;;23.84;29.29